Terminal Aerodrome Forecast
Issued by NWS

Home | Current Version | Previous Version | Text Only | Print | Product List | Glossary On
Versions: 1 2 3 4 5 6 7 8 9 10 11 12 13
000
FTUS42 KMLB 171724
TAFSUA
TAF
KSUA 171724Z 1718/1818 12008KT P6SM FEW035
     FM180000 17004KT P6SM FEW250
     FM180600 29003KT P6SM SCT250
     FM181500 10006KT P6SM FEW030 SCT250=

USA.gov is the U.S. government's official web portal to all federal, state and local government web resources and services.